METAR Data
IDs: Format: Raw Decoded Include TAF

Data at: 1304 UTC 26 Feb 2021

METAR for:KC99 (Dakota Hill, CO, US)
Text:KC99 261255Z AUTO 28019G31KT 10SM SCT035 M13/M20 A2968 RMK AO2
Temperature:-13.0°C ( 9°F)
Dewpoint:-20.0°C ( -4°F) [RH = 56%]
Pressure (altimeter):29.68 inches Hg (1005.2 mb)
Winds:from the W (280 degrees) at 22 MPH (19 knots; 9.8 m/s) gusting to 36 MPH (31 knots; 15.9 m/s)
Visibility:10 or more sm (16+ km)
Ceiling:at least 12,000 feet AGL
Clouds: scattered clouds at 3500 feet AGL
QC Flag:automated observation with no human augmentation